Time;durP1;ratioP1;P1;durP2;ratioP2;P2;SDS_P1;SDS_P2;PMS_P1;PMS_P2;Temp;Humidity;BMP_temperature;BMP_pressure;BME280_temperature;BME280_humidity;BME280_pressure;Samples;Min_cycle;Max_cycle;Signal;HPM_P1;HPM_P2
2023/12/02 00:02:41;;;;;;;13.95;9.10;;;;;;;;;;5818404;28;20109;-77
2023/12/02 00:05:32;;;;;;;19.15;8.73;;;;;;;;;;5819784;28;20042;-77
2023/12/02 00:08:23;;;;;;;16.30;9.35;;;;;;;;;;5818235;28;20157;-77
2023/12/02 00:11:13;;;;;;;10.07;6.72;;;;;;;;;;5851013;28;20050;-77
2023/12/02 00:14:04;;;;;;;13.35;8.57;;;;;;;;;;5819683;28;20072;-77
2023/12/02 00:16:55;;;;;;;21.63;8.68;;;;;;;;;;5834988;28;20523;-77
2023/12/02 00:19:46;;;;;;;18.73;7.00;;;;;;;;;;5818404;28;20065;-77
2023/12/02 00:22:37;;;;;;;22.92;7.45;;;;;;;;;;5850925;28;20214;-76
2023/12/02 00:25:27;;;;;;;14.82;9.43;;;;;;;;;;5818252;28;20042;-76
2023/12/02 00:28:20;;;;;;;13.38;7.38;;;;;;;;;;5817791;28;20077;-77
2023/12/02 00:31:11;;;;;;;24.13;9.27;;;;;;;;;;5850796;28;20058;-77
2023/12/02 00:34:02;;;;;;;11.73;7.35;;;;;;;;;;5816989;28;20054;-75
2023/12/02 00:36:53;;;;;;;13.63;7.13;;;;;;;;;;5850660;28;20046;-77
2023/12/02 00:39:43;;;;;;;17.63;7.30;;;;;;;;;;5817797;28;20048;-75
2023/12/02 00:42:34;;;;;;;11.15;7.35;;;;;;;;;;5817844;28;20527;-77
2023/12/02 00:45:25;;;;;;;13.52;8.40;;;;;;;;;;5817559;28;20181;-77
2023/12/02 00:48:16;;;;;;;16.67;7.90;;;;;;;;;;5850362;28;20484;-77
2023/12/02 00:51:07;;;;;;;16.90;8.05;;;;;;;;;;5850078;28;20042;-77
2023/12/02 00:53:58;;;;;;;17.23;6.93;;;;;;;;;;5817767;28;20047;-77
2023/12/02 00:56:49;;;;;;;12.55;7.43;;;;;;;;;;5818645;28;20050;-76
2023/12/02 00:59:40;;;;;;;19.70;8.43;;;;;;;;;;5817298;28;20069;-77
2023/12/02 01:02:30;;;;;;;10.85;7.07;;;;;;;;;;5810347;28;20042;-77
2023/12/02 01:05:21;;;;;;;19.90;8.25;;;;;;;;;;5799499;28;20054;-76
2023/12/02 01:08:12;;;;;;;10.40;7.43;;;;;;;;;;5795882;28;20421;-77
2023/12/02 01:11:03;;;;;;;13.57;7.45;;;;;;;;;;5795754;28;20046;-76
2023/12/02 01:13:54;;;;;;;18.23;7.25;;;;;;;;;;5796219;28;20051;-77
2023/12/02 01:16:44;;;;;;;18.92;7.82;;;;;;;;;;5794341;28;20069;-77
2023/12/02 01:19:35;;;;;;;13.18;6.80;;;;;;;;;;5794439;28;20047;-77
2023/12/02 01:22:26;;;;;;;13.82;7.90;;;;;;;;;;5778432;28;20043;-77
2023/12/02 01:25:17;;;;;;;13.38;6.28;;;;;;;;;;5826572;28;20065;-77
2023/12/02 01:28:08;;;;;;;16.08;7.32;;;;;;;;;;5795459;28;20055;-77
2023/12/02 01:30:58;;;;;;;19.23;7.85;;;;;;;;;;5778495;28;20051;-78
2023/12/02 01:33:49;;;;;;;14.85;7.82;;;;;;;;;;5794099;28;20051;-77
2023/12/02 01:36:40;;;;;;;13.85;6.97;;;;;;;;;;5793755;28;20038;-76
2023/12/02 01:39:31;;;;;;;23.02;7.47;;;;;;;;;;5795059;28;20411;-77
2023/12/02 01:42:22;;;;;;;13.43;7.53;;;;;;;;;;5795100;28;20516;-77
2023/12/02 01:45:14;;;;;;;25.70;10.23;;;;;;;;;;5793407;28;20090;-77
2023/12/02 01:48:05;;;;;;;15.80;8.70;;;;;;;;;;5793674;28;20054;-77
2023/12/02 01:50:57;;;;;;;16.10;8.77;;;;;;;;;;5778412;28;20428;-78
2023/12/02 01:53:47;;;;;;;24.25;9.80;;;;;;;;;;5809351;28;20042;-77
2023/12/02 01:56:39;;;;;;;22.38;9.65;;;;;;;;;;5793410;28;20069;-78
2023/12/02 01:59:31;;;;;;;34.45;8.98;;;;;;;;;;5793558;28;20125;-77
2023/12/02 02:02:22;;;;;;;18.02;8.50;;;;;;;;;;5793413;28;20043;-77
2023/12/02 02:05:13;;;;;;;13.63;8.32;;;;;;;;;;5793362;28;20058;-77
2023/12/02 02:08:04;;;;;;;11.60;7.18;;;;;;;;;;5794437;28;20047;-77
2023/12/02 02:10:58;;;;;;;18.80;7.28;;;;;;;;;;5793753;28;20475;-77
2023/12/02 02:13:49;;;;;;;14.20;6.43;;;;;;;;;;5777380;28;20070;-78
2023/12/02 02:16:40;;;;;;;11.73;6.90;;;;;;;;;;5825404;28;20050;-78
2023/12/02 02:19:32;;;;;;;6.97;5.32;;;;;;;;;;5793044;28;20042;-77
2023/12/02 02:22:22;;;;;;;17.27;6.78;;;;;;;;;;5792911;28;20121;-77
2023/12/02 02:25:14;;;;;;;16.50;5.80;;;;;;;;;;5808762;28;20046;-77
2023/12/02 02:28:05;;;;;;;10.68;6.72;;;;;;;;;;5794152;28;20059;-77
2023/12/02 02:30:55;;;;;;;11.50;6.45;;;;;;;;;;5777334;28;20058;-77
2023/12/02 02:33:46;;;;;;;14.50;5.20;;;;;;;;;;5808935;28;20066;-77
2023/12/02 02:36:37;;;;;;;21.00;6.78;;;;;;;;;;5808978;28;20535;-77
2023/12/02 02:39:28;;;;;;;13.93;4.93;;;;;;;;;;5793965;28;20057;-76
2023/12/02 02:42:18;;;;;;;12.90;7.07;;;;;;;;;;5792748;28;20515;-76
2023/12/02 02:45:09;;;;;;;5.63;4.70;;;;;;;;;;5793914;28;20082;-77
2023/12/02 02:48:00;;;;;;;6.93;3.63;;;;;;;;;;5808954;28;20149;-77
2023/12/02 02:50:51;;;;;;;5.57;3.78;;;;;;;;;;5808761;28;20053;-77
2023/12/02 02:53:42;;;;;;;8.43;3.17;;;;;;;;;;5793770;28;20047;-75
2023/12/02 02:56:33;;;;;;;4.05;2.95;;;;;;;;;;5793474;28;20054;-77
2023/12/02 02:59:24;;;;;;;2.67;2.33;;;;;;;;;;5793637;28;20054;-75
2023/12/02 03:02:15;;;;;;;12.95;4.03;;;;;;;;;;5792549;28;20058;-76
2023/12/02 03:05:06;;;;;;;4.00;3.55;;;;;;;;;;5793746;28;20393;-77
2023/12/02 03:07:57;;;;;;;8.30;3.63;;;;;;;;;;5808694;28;20053;-77
2023/12/02 03:10:49;;;;;;;9.98;4.93;;;;;;;;;;5776561;28;20043;-77
2023/12/02 03:13:39;;;;;;;8.95;4.20;;;;;;;;;;5808294;28;20051;-78
2023/12/02 03:16:30;;;;;;;8.52;5.35;;;;;;;;;;5793918;28;20133;-76
2023/12/02 03:19:21;;;;;;;7.45;4.13;;;;;;;;;;5793758;28;20074;-77
2023/12/02 03:22:12;;;;;;;10.65;4.85;;;;;;;;;;5792463;28;20521;-77
2023/12/02 03:25:03;;;;;;;8.52;4.85;;;;;;;;;;5808143;28;20054;-76
2023/12/02 03:27:54;;;;;;;7.95;4.15;;;;;;;;;;5792571;28;20484;-77
2023/12/02 03:30:44;;;;;;;9.82;4.95;;;;;;;;;;5793649;28;20457;-77
2023/12/02 03:33:35;;;;;;;13.13;6.68;;;;;;;;;;5791940;28;20046;-77
2023/12/02 03:36:26;;;;;;;8.77;4.45;;;;;;;;;;5792207;28;20043;-77
2023/12/02 03:39:18;;;;;;;5.90;4.20;;;;;;;;;;5793373;28;20556;-77
2023/12/02 03:42:09;;;;;;;5.57;3.83;;;;;;;;;;5792099;28;20523;-77
2023/12/02 03:45:00;;;;;;;8.32;3.92;;;;;;;;;;5793845;28;20416;-77
2023/12/02 03:47:51;;;;;;;9.55;5.25;;;;;;;;;;5793363;28;20066;-77
2023/12/02 03:50:42;;;;;;;7.70;4.85;;;;;;;;;;5808154;28;20113;-77
2023/12/02 03:53:35;;;;;;;5.00;3.20;;;;;;;;;;5793121;28;20050;-77
2023/12/02 03:56:26;;;;;;;5.30;3.78;;;;;;;;;;5793317;28;20046;-77
2023/12/02 03:59:17;;;;;;;6.40;3.90;;;;;;;;;;5791854;28;20073;-77
2023/12/02 04:02:08;;;;;;;4.03;2.63;;;;;;;;;;5808158;28;20047;-77
2023/12/02 04:04:58;;;;;;;9.35;3.83;;;;;;;;;;5793584;28;20054;-77
2023/12/02 04:07:49;;;;;;;9.10;3.38;;;;;;;;;;5775787;28;20182;-77
2023/12/02 04:10:40;;;;;;;7.03;2.80;;;;;;;;;;5794734;28;20047;-77
2023/12/02 04:13:31;;;;;;;6.03;2.97;;;;;;;;;;5797350;28;20043;-77
2023/12/02 04:16:22;;;;;;;5.68;2.30;;;;;;;;;;5795728;28;20047;-76
2023/12/02 04:19:12;;;;;;;9.02;3.38;;;;;;;;;;5797065;28;20061;-75
2023/12/02 04:22:03;;;;;;;10.57;3.50;;;;;;;;;;5795772;28;20047;-76
2023/12/02 04:24:54;;;;;;;5.15;2.70;;;;;;;;;;5795950;28;20055;-77
2023/12/02 04:27:46;;;;;;;3.95;2.45;;;;;;;;;;5795200;28;20076;-77
2023/12/02 04:30:40;;;;;;;5.88;2.15;;;;;;;;;;5796714;28;20050;-76
2023/12/02 04:33:30;;;;;;;3.35;1.65;;;;;;;;;;5795298;28;20066;-76
2023/12/02 04:36:21;;;;;;;6.88;2.63;;;;;;;;;;5827524;28;20050;-77
2023/12/02 04:39:12;;;;;;;5.43;2.80;;;;;;;;;;5795383;28;20658;-76
2023/12/02 04:42:04;;;;;;;3.83;3.15;;;;;;;;;;5795413;28;20043;-76
2023/12/02 04:44:55;;;;;;;3.03;2.72;;;;;;;;;;5797008;28;20579;-77
2023/12/02 04:47:46;;;;;;;5.40;2.63;;;;;;;;;;5794951;28;20047;-76
2023/12/02 04:50:37;;;;;;;3.13;1.55;;;;;;;;;;5779203;28;20062;-77
2023/12/02 04:53:28;;;;;;;5.55;2.60;;;;;;;;;;5796025;28;20678;-77
2023/12/02 04:56:19;;;;;;;3.33;2.20;;;;;;;;;;5827288;28;20054;-77
2023/12/02 04:59:10;;;;;;;9.15;4.95;;;;;;;;;;5794960;28;20083;-77
2023/12/02 05:02:01;;;;;;;15.57;9.48;;;;;;;;;;5794919;28;20050;-77
2023/12/02 05:04:52;;;;;;;9.27;5.93;;;;;;;;;;5796477;28;20074;-77
2023/12/02 05:07:42;;;;;;;5.80;3.50;;;;;;;;;;5827293;28;20046;-77
2023/12/02 05:10:33;;;;;;;5.10;3.40;;;;;;;;;;5778490;28;20047;-77
2023/12/02 05:13:24;;;;;;;6.65;3.25;;;;;;;;;;5810523;28;20053;-76
2023/12/02 05:16:15;;;;;;;7.85;4.97;;;;;;;;;;5810602;28;20050;-76
2023/12/02 05:19:05;;;;;;;12.23;5.68;;;;;;;;;;5795452;28;20053;-76
2023/12/02 05:21:56;;;;;;;14.18;5.43;;;;;;;;;;5795637;28;20047;-76
2023/12/02 05:24:47;;;;;;;6.80;3.08;;;;;;;;;;5826493;28;20047;-76
2023/12/02 05:27:38;;;;;;;5.22;3.15;;;;;;;;;;5826711;28;20054;-76
2023/12/02 05:30:28;;;;;;;5.47;2.65;;;;;;;;;;5795474;28;20121;-76
2023/12/02 05:33:22;;;;;;;6.55;3.72;;;;;;;;;;5794234;28;20163;-76
2023/12/02 05:36:13;;;;;;;5.47;3.80;;;;;;;;;;5795442;28;20054;-76
2023/12/02 05:39:04;;;;;;;6.53;3.58;;;;;;;;;;5793957;28;20444;-76
2023/12/02 05:41:54;;;;;;;6.10;4.32;;;;;;;;;;5810697;28;20073;-76
2023/12/02 05:44:45;;;;;;;6.25;4.63;;;;;;;;;;5794020;28;20051;-76
2023/12/02 05:47:36;;;;;;;7.97;4.63;;;;;;;;;;5793639;28;20054;-76
2023/12/02 05:50:27;;;;;;;4.22;3.13;;;;;;;;;;5795202;28;20122;-76
2023/12/02 05:53:18;;;;;;;6.35;2.03;;;;;;;;;;5795215;28;20062;-76
2023/12/02 05:56:09;;;;;;;8.15;2.42;;;;;;;;;;5795108;28;20067;-76
2023/12/02 05:59:00;;;;;;;7.50;3.20;;;;;;;;;;5795467;28;20471;-76
2023/12/02 06:01:51;;;;;;;8.23;3.60;;;;;;;;;;5794944;28;20042;-76
2023/12/02 06:04:42;;;;;;;5.20;3.33;;;;;;;;;;5793578;28;20516;-76
2023/12/02 06:07:33;;;;;;;2.38;1.60;;;;;;;;;;5793537;28;20042;-77
2023/12/02 06:10:24;;;;;;;3.90;2.45;;;;;;;;;;5777535;28;20043;-76
2023/12/02 06:13:14;;;;;;;9.48;2.67;;;;;;;;;;5777531;28;20057;-76
2023/12/02 06:16:06;;;;;;;5.35;2.63;;;;;;;;;;5777373;28;20054;-76
2023/12/02 06:18:56;;;;;;;5.57;2.78;;;;;;;;;;5795051;28;20109;-76
2023/12/02 06:21:47;;;;;;;6.45;3.65;;;;;;;;;;5793455;28;20457;-76
2023/12/02 06:24:38;;;;;;;9.13;4.47;;;;;;;;;;5792904;28;20049;-76
2023/12/02 06:27:29;;;;;;;7.70;4.35;;;;;;;;;;5794456;28;20114;-76
2023/12/02 06:30:20;;;;;;;2.70;1.98;;;;;;;;;;5792949;28;20053;-76
2023/12/02 06:33:11;;;;;;;6.95;2.97;;;;;;;;;;5792229;28;20054;-76
2023/12/02 06:36:01;;;;;;;5.38;3.00;;;;;;;;;;5792935;28;20066;-76
2023/12/02 06:38:52;;;;;;;7.70;2.75;;;;;;;;;;5793367;28;20050;-76
2023/12/02 06:41:44;;;;;;;4.50;3.25;;;;;;;;;;5794521;28;20125;-76
2023/12/02 06:44:35;;;;;;;2.25;2.03;;;;;;;;;;5825118;28;20515;-76
2023/12/02 06:47:26;;;;;;;7.97;3.83;;;;;;;;;;5794001;28;20051;-77
2023/12/02 06:50:17;;;;;;;4.22;2.38;;;;;;;;;;5792985;28;20047;-76
2023/12/02 06:53:08;;;;;;;3.78;1.50;;;;;;;;;;5792811;28;20481;-76
2023/12/02 06:55:59;;;;;;;3.70;2.33;;;;;;;;;;5809247;28;20472;-76
2023/12/02 06:58:51;;;;;;;5.85;3.10;;;;;;;;;;5792629;28;20047;-77
2023/12/02 07:01:41;;;;;;;10.20;3.80;;;;;;;;;;5792496;28;20046;-76
2023/12/02 07:04:32;;;;;;;23.20;12.15;;;;;;;;;;5793710;28;20515;-76
2023/12/02 07:07:23;;;;;;;10.70;8.02;;;;;;;;;;5808540;28;20134;-76
2023/12/02 07:10:14;;;;;;;18.15;10.38;;;;;;;;;;5792410;28;20059;-77
2023/12/02 07:13:05;;;;;;;15.35;4.65;;;;;;;;;;5792529;28;20054;-75
2023/12/02 07:15:55;;;;;;;15.48;5.65;;;;;;;;;;5794263;28;20047;-76
2023/12/02 07:18:46;;;;;;;11.32;3.55;;;;;;;;;;5824787;28;20421;-76
2023/12/02 07:21:37;;;;;;;5.13;1.77;;;;;;;;;;5793871;28;20061;-76
2023/12/02 07:24:29;;;;;;;15.80;9.38;;;;;;;;;;5793774;28;20428;-76
2023/12/02 07:27:19;;;;;;;14.18;7.07;;;;;;;;;;5776400;28;20220;-76
2023/12/02 07:30:10;;;;;;;15.77;4.40;;;;;;;;;;5792430;28;20144;-76
2023/12/02 07:33:04;;;;;;;4.80;3.72;;;;;;;;;;5793865;28;20043;-76
2023/12/02 07:35:55;;;;;;;4.20;2.63;;;;;;;;;;5793880;28;20619;-76
2023/12/02 07:38:46;;;;;;;9.15;2.42;;;;;;;;;;5808544;28;20038;-76
2023/12/02 07:41:36;;;;;;;13.15;4.07;;;;;;;;;;5824412;28;20049;-76
2023/12/02 07:44:27;;;;;;;13.82;8.88;;;;;;;;;;5811029;28;20051;-75
2023/12/02 07:47:18;;;;;;;11.18;6.63;;;;;;;;;;5828876;28;20050;-75
2023/12/02 07:50:09;;;;;;;8.30;4.38;;;;;;;;;;5796460;28;20448;-76
2023/12/02 07:53:00;;;;;;;11.07;4.40;;;;;;;;;;5796908;28;20404;-75
2023/12/02 07:55:51;;;;;;;34.03;6.90;;;;;;;;;;5796673;28;20515;-75
2023/12/02 07:58:41;;;;;;;11.02;4.78;;;;;;;;;;5797354;28;20049;-75
2023/12/02 08:01:32;;;;;;;14.38;5.18;;;;;;;;;;5795963;28;20039;-74
2023/12/02 08:04:24;;;;;;;4.20;2.67;;;;;;;;;;5797721;28;20130;-75
2023/12/02 08:07:15;;;;;;;4.85;3.20;;;;;;;;;;5796506;28;20360;-75
2023/12/02 08:10:06;;;;;;;6.00;3.47;;;;;;;;;;5828608;28;20062;-75
2023/12/02 08:12:57;;;;;;;33.60;6.97;;;;;;;;;;5797850;28;20046;-74
2023/12/02 08:15:48;;;;;;;16.05;4.60;;;;;;;;;;5797521;28;20050;-74
2023/12/02 08:18:39;;;;;;;9.88;4.15;;;;;;;;;;5798145;28;20046;-74
2023/12/02 08:21:30;;;;;;;22.70;5.70;;;;;;;;;;5816075;28;20196;-74
2023/12/02 08:24:20;;;;;;;13.63;5.13;;;;;;;;;;5818054;28;20492;-74
2023/12/02 08:27:11;;;;;;;8.60;3.20;;;;;;;;;;5819065;28;20061;-74
2023/12/02 08:30:05;;;;;;;6.65;2.08;;;;;;;;;;5817340;28;20479;-74
2023/12/02 08:32:55;;;;;;;12.13;5.20;;;;;;;;;;5818171;28;20042;-74
2023/12/02 08:35:46;;;;;;;7.40;3.97;;;;;;;;;;5818151;28;20077;-75
2023/12/02 08:38:37;;;;;;;12.07;5.43;;;;;;;;;;5819050;28;20050;-74
2023/12/02 08:41:28;;;;;;;17.15;8.30;;;;;;;;;;5817761;28;20043;-75
2023/12/02 08:44:19;;;;;;;14.82;6.47;;;;;;;;;;5817738;28;20050;-74
2023/12/02 08:47:10;;;;;;;19.40;5.32;;;;;;;;;;5817947;28;20054;-74
2023/12/02 08:50:01;;;;;;;37.85;17.08;;;;;;;;;;5817080;28;20050;-76
2023/12/02 08:52:52;;;;;;;20.83;10.52;;;;;;;;;;5818066;28;20060;-74
2023/12/02 08:55:42;;;;;;;19.23;8.55;;;;;;;;;;5816566;28;20082;-74
2023/12/02 08:58:33;;;;;;;13.63;6.07;;;;;;;;;;5818654;28;20043;-74
2023/12/02 09:01:25;;;;;;;27.27;10.70;;;;;;;;;;5816880;28;20062;-75
2023/12/02 09:04:16;;;;;;;16.27;7.30;;;;;;;;;;5808054;28;20190;-75
2023/12/02 09:07:07;;;;;;;18.42;8.38;;;;;;;;;;5817883;28;20049;-75
2023/12/02 09:09:58;;;;;;;11.68;7.25;;;;;;;;;;5818101;28;20050;-74
2023/12/02 09:12:49;;;;;;;10.52;7.43;;;;;;;;;;5801965;28;20052;-74
2023/12/02 09:15:43;;;;;;;14.13;7.03;;;;;;;;;;5819327;28;20050;-74
2023/12/02 09:18:35;;;;;;;7.70;5.35;;;;;;;;;;5820083;28;20070;-75
2023/12/02 09:21:43;;;;;;;6.78;3.85;;;;;;;;;;5818529;28;20038;-75
2023/12/02 09:24:38;;;;;;;11.70;6.57;;;;;;;;;;5818465;28;20038;-74
2023/12/02 09:28:05;;;;;;;9.35;5.05;;;;;;;;;;5801859;28;20057;-75
2023/12/02 09:31:03;;;;;;;6.28;4.00;;;;;;;;;;5819361;28;20038;-75
2023/12/02 09:34:03;;;;;;;9.40;4.28;;;;;;;;;;5819464;28;20074;-75
2023/12/02 09:36:54;;;;;;;10.15;5.25;;;;;;;;;;5818173;28;20443;-74
2023/12/02 09:40:29;;;;;;;10.32;5.93;;;;;;;;;;5817640;28;20049;-75
2023/12/02 09:43:38;;;;;;;22.38;9.85;;;;;;;;;;5833608;28;20046;-75
2023/12/02 09:46:40;;;;;;;10.38;4.50;;;;;;;;;;5818848;28;20452;-75
2023/12/02 09:49:47;;;;;;;12.43;6.25;;;;;;;;;;5817664;28;20334;-75
2023/12/02 09:52:49;;;;;;;8.63;4.63;;;;;;;;;;5817746;28;20188;-75
2023/12/02 09:55:52;;;;;;;22.90;6.68;;;;;;;;;;5817124;28;20060;-75
2023/12/02 09:58:45;;;;;;;7.13;5.40;;;;;;;;;;5816684;28;20046;-75
2023/12/02 10:01:42;;;;;;;10.38;4.80;;;;;;;;;;5817088;28;20042;-75
2023/12/02 10:05:12;;;;;;;10.13;5.22;;;;;;;;;;5816266;28;20412;-75
2023/12/02 10:08:45;;;;;;;13.90;5.70;;;;;;;;;;5816178;28;20042;-76
2023/12/02 10:12:16;;;;;;;26.38;6.97;;;;;;;;;;5817263;28;20073;-75
2023/12/02 10:15:11;;;;;;;30.58;6.10;;;;;;;;;;5817177;28;20043;-75
2023/12/02 10:18:13;;;;;;;17.08;7.47;;;;;;;;;;5800417;28;20054;-74
2023/12/02 10:21:10;;;;;;;7.22;3.88;;;;;;;;;;5804018;28;20058;-75
2023/12/02 10:24:08;;;;;;;6.57;4.35;;;;;;;;;;5816338;28;20046;-75
2023/12/02 10:27:06;;;;;;;21.20;7.97;;;;;;;;;;5816379;28;20053;-75
2023/12/02 10:30:15;;;;;;;15.68;6.47;;;;;;;;;;5816109;28;20046;-74
2023/12/02 10:33:17;;;;;;;13.32;5.07;;;;;;;;;;5815436;28;20100;-75
2023/12/02 10:36:10;;;;;;;20.05;5.65;;;;;;;;;;5816011;28;20054;-75
2023/12/02 10:39:09;;;;;;;19.70;6.97;;;;;;;;;;5815772;28;20046;-76
2023/12/02 10:42:05;;;;;;;12.10;4.88;;;;;;;;;;5831491;28;20078;-75
2023/12/02 10:45:07;;;;;;;6.20;4.25;;;;;;;;;;5817634;28;20046;-74
2023/12/02 10:47:59;;;;;;;38.65;15.95;;;;;;;;;;5815745;28;20042;-74
2023/12/02 10:50:51;;;;;;;57.35;19.52;;;;;;;;;;5799863;28;20034;-75
2023/12/02 10:53:43;;;;;;;31.75;8.43;;;;;;;;;;5815584;28;20057;-75
2023/12/02 10:56:38;;;;;;;20.02;5.60;;;;;;;;;;5815202;28;20050;-75
2023/12/02 10:59:37;;;;;;;15.77;5.40;;;;;;;;;;5815423;28;20050;-74
2023/12/02 11:02:31;;;;;;;;;;;;;;;;;;5815760;28;20050;-75
2023/12/02 11:05:45;;;;;;;12.20;5.78;;;;;;;;;;5816469;28;19925;-75
2023/12/02 11:08:49;;;;;;;16.63;5.88;;;;;;;;;;5811745;28;20046;-75
2023/12/02 11:11:46;;;;;;;9.80;5.93;;;;;;;;;;5799546;28;20050;-75
2023/12/02 11:14:41;;;;;;;16.25;4.97;;;;;;;;;;5816521;28;20045;-75
2023/12/02 11:18:03;;;;;;;12.55;5.57;;;;;;;;;;5825360;28;20045;-75
2023/12/02 11:21:04;;;;;;;5.38;3.97;;;;;;;;;;5812657;28;20050;-75
2023/12/02 11:24:13;;;;;;;20.05;5.88;;;;;;;;;;5820467;28;20039;-75
2023/12/02 11:27:38;;;;;;;9.20;5.30;;;;;;;;;;5820627;28;20125;-74
2023/12/02 11:30:40;;;;;;;8.82;4.50;;;;;;;;;;5820917;28;20447;-75
2023/12/02 11:33:37;;;;;;;13.75;5.00;;;;;;;;;;5820956;28;20046;-75
2023/12/02 11:36:45;;;;;;;6.45;3.83;;;;;;;;;;5821647;28;20062;-75
2023/12/02 11:39:50;;;;;;;14.05;4.72;;;;;;;;;;5819913;28;20607;-75
2023/12/02 11:42:55;;;;;;;10.38;4.20;;;;;;;;;;5820751;28;20053;-74
2023/12/02 11:45:55;;;;;;;14.93;5.97;;;;;;;;;;5820886;28;20069;-74
2023/12/02 11:49:06;;;;;;;11.82;4.72;;;;;;;;;;5818880;28;20093;-75
2023/12/02 11:52:26;;;;;;;7.05;4.30;;;;;;;;;;5819685;28;20121;-74
2023/12/02 11:55:34;;;;;;;8.77;4.68;;;;;;;;;;5819312;28;20058;-74
2023/12/02 11:58:39;;;;;;;12.05;5.78;;;;;;;;;;5803630;28;20050;-75
2023/12/02 12:02:15;;;;;;;13.73;5.25;;;;;;;;;;5816890;28;20046;-75
2023/12/02 12:05:18;;;;;;;14.02;5.65;;;;;;;;;;5799244;28;20073;-75
2023/12/02 12:08:22;;;;;;;9.60;5.03;;;;;;;;;;5820062;28;20128;-75
2023/12/02 12:11:17;;;;;;;10.52;5.00;;;;;;;;;;5818880;28;20065;-75
2023/12/02 12:14:09;;;;;;;11.68;5.32;;;;;;;;;;5818614;28;20058;-76
2023/12/02 12:16:59;;;;;;;8.68;4.85;;;;;;;;;;5810788;28;20053;-75
2023/12/02 12:19:50;;;;;;;13.98;6.22;;;;;;;;;;5818704;28;20100;-75
2023/12/02 12:22:41;;;;;;;11.05;4.63;;;;;;;;;;5818668;28;20054;-74
2023/12/02 12:25:32;;;;;;;28.30;10.02;;;;;;;;;;5818560;28;20051;-76
2023/12/02 12:28:25;;;;;;;19.27;7.57;;;;;;;;;;5818496;28;20516;-75
2023/12/02 12:31:17;;;;;;;9.40;5.10;;;;;;;;;;5817172;28;20519;-76
2023/12/02 12:34:12;;;;;;;18.80;7.80;;;;;;;;;;5818474;28;20050;-76
2023/12/02 12:37:03;;;;;;;11.13;6.22;;;;;;;;;;5818265;28;20046;-75
2023/12/02 12:39:54;;;;;;;13.00;5.15;;;;;;;;;;5818759;28;20057;-75
2023/12/02 12:42:50;;;;;;;5.60;3.67;;;;;;;;;;5818053;28;20058;-75
2023/12/02 12:45:41;;;;;;;13.70;5.95;;;;;;;;;;5818325;28;20416;-75
2023/12/02 12:48:35;;;;;;;4.90;3.28;;;;;;;;;;5819400;28;20065;-75
2023/12/02 12:51:29;;;;;;;7.95;5.30;;;;;;;;;;5819123;28;20064;-76
2023/12/02 12:54:21;;;;;;;11.32;6.30;;;;;;;;;;5818039;28;20050;-75
2023/12/02 12:57:52;;;;;;;8.63;4.68;;;;;;;;;;5817857;28;20432;-76
2023/12/02 13:00:50;;;;;;;5.72;4.28;;;;;;;;;;5819215;28;20057;-75
2023/12/02 13:03:51;;;;;;;8.85;6.13;;;;;;;;;;5817960;28;20501;-76
2023/12/02 13:06:51;;;;;;;11.05;6.55;;;;;;;;;;5801724;28;20042;-75
2023/12/02 13:09:46;;;;;;;5.63;4.78;;;;;;;;;;5817480;28;20043;-75
2023/12/02 13:12:38;;;;;;;9.43;5.50;;;;;;;;;;5801577;28;20049;-75
2023/12/02 13:15:32;;;;;;;15.07;5.85;;;;;;;;;;5818913;28;20078;-74
2023/12/02 13:18:24;;;;;;;8.20;5.38;;;;;;;;;;5817416;28;20152;-75
2023/12/02 13:21:18;;;;;;;8.27;5.28;;;;;;;;;;5817419;28;20499;-75
2023/12/02 13:24:14;;;;;;;7.93;4.40;;;;;;;;;;5817369;28;20042;-75
2023/12/02 13:27:07;;;;;;;7.70;3.67;;;;;;;;;;5817463;28;20133;-75
2023/12/02 13:30:04;;;;;;;11.32;5.22;;;;;;;;;;5817626;28;20049;-75
2023/12/02 13:33:05;;;;;;;7.47;4.70;;;;;;;;;;5818548;28;20098;-75
2023/12/02 13:36:16;;;;;;;9.18;5.03;;;;;;;;;;5817392;28;20042;-74
2023/12/02 13:39:34;;;;;;;11.02;5.05;;;;;;;;;;5801632;28;20042;-75
2023/12/02 13:42:30;;;;;;;14.52;5.55;;;;;;;;;;5816929;28;20053;-74
2023/12/02 13:45:24;;;;;;;12.85;5.60;;;;;;;;;;5816971;28;20493;-75
2023/12/02 13:48:28;;;;;;;10.52;4.57;;;;;;;;;;5816984;28;20047;-74
2023/12/02 13:51:29;;;;;;;7.35;4.78;;;;;;;;;;5817673;28;20070;-74
2023/12/02 13:55:17;;;;;;;8.18;5.40;;;;;;;;;;5801067;28;20053;-74
2023/12/02 13:58:27;;;;;;;14.65;5.43;;;;;;;;;;5816380;28;20049;-74
2023/12/02 14:02:11;;;;;;;7.13;4.68;;;;;;;;;;5816710;28;20057;-73
2023/12/02 14:05:08;;;;;;;10.38;6.57;;;;;;;;;;5816464;28;20049;-74
2023/12/02 14:08:01;;;;;;;31.05;12.35;;;;;;;;;;5818006;28;20132;-74
2023/12/02 14:10:53;;;;;;;16.42;9.52;;;;;;;;;;5816488;28;20066;-73
2023/12/02 14:14:09;;;;;;;29.02;11.55;;;;;;;;;;5817423;28;20054;-73
2023/12/02 14:17:50;;;;;;;23.70;8.95;;;;;;;;;;5816664;28;20046;-74
2023/12/02 14:21:18;;;;;;;19.58;9.15;;;;;;;;;;5816072;28;20125;-73
2023/12/02 14:24:39;;;;;;;22.00;8.13;;;;;;;;;;5816927;28;20141;-74
2023/12/02 14:27:45;;;;;;;30.08;9.48;;;;;;;;;;5816063;28;20038;-74
2023/12/02 14:30:58;;;;;;;19.13;7.72;;;;;;;;;;5817200;28;20046;-73
2023/12/02 14:34:15;;;;;;;22.65;9.02;;;;;;;;;;5817125;28;20050;-73
2023/12/02 14:37:08;;;;;;;18.75;8.68;;;;;;;;;;5816740;28;20177;-75
2023/12/02 14:40:31;;;;;;;23.70;8.23;;;;;;;;;;5817488;28;20057;-73
2023/12/02 14:43:34;;;;;;;16.73;5.65;;;;;;;;;;5816776;28;20051;-73
2023/12/02 14:46:26;;;;;;;23.33;8.52;;;;;;;;;;5815570;28;20075;-73
2023/12/02 14:49:17;;;;;;;29.27;10.43;;;;;;;;;;5815597;28;20065;-73
2023/12/02 14:52:08;;;;;;;24.17;10.95;;;;;;;;;;5816745;28;20527;-74
2023/12/02 14:55:00;;;;;;;67.82;25.92;;;;;;;;;;5816777;28;20707;-73
2023/12/02 14:58:19;;;;;;;59.65;18.85;;;;;;;;;;5799711;28;20038;-73
2023/12/02 15:01:12;;;;;;;25.35;10.77;;;;;;;;;;5794020;28;20049;-73
2023/12/02 15:04:03;;;;;;;18.25;8.10;;;;;;;;;;5815213;28;20057;-73
2023/12/02 15:06:54;;;;;;;10.18;5.72;;;;;;;;;;5815824;28;20050;-73
2023/12/02 15:09:45;;;;;;;45.63;10.68;;;;;;;;;;5815333;28;20181;-74
2023/12/02 15:12:37;;;;;;;19.17;7.07;;;;;;;;;;5799283;28;20053;-73
2023/12/02 15:15:34;;;;;;;16.15;6.20;;;;;;;;;;5815614;28;20112;-74
2023/12/02 15:18:28;;;;;;;12.77;4.95;;;;;;;;;;5815337;28;20387;-73
2023/12/02 15:21:19;;;;;;;8.00;3.50;;;;;;;;;;5799427;28;20091;-74
2023/12/02 15:24:10;;;;;;;13.60;5.93;;;;;;;;;;5815181;28;20129;-75
2023/12/02 15:27:01;;;;;;;12.05;6.22;;;;;;;;;;5815250;28;20492;-75
2023/12/02 15:29:52;;;;;;;32.80;9.23;;;;;;;;;;5815484;28;20416;-74
2023/12/02 15:32:44;;;;;;;20.50;7.10;;;;;;;;;;5815155;28;20112;-73
2023/12/02 15:35:35;;;;;;;14.13;7.03;;;;;;;;;;5799030;28;20132;-73
2023/12/02 15:38:26;;;;;;;11.18;5.90;;;;;;;;;;5808670;28;20049;-73
2023/12/02 15:41:18;;;;;;;25.60;9.90;;;;;;;;;;5815013;28;20057;-73
2023/12/02 15:44:11;;;;;;;16.25;7.25;;;;;;;;;;5814846;28;20062;-74
2023/12/02 15:47:03;;;;;;;15.02;5.85;;;;;;;;;;5799326;28;20050;-75
2023/12/02 15:49:55;;;;;;;11.10;5.47;;;;;;;;;;5816677;28;20050;-74
2023/12/02 15:52:46;;;;;;;13.60;6.03;;;;;;;;;;5816217;28;20049;-74
2023/12/02 15:55:39;;;;;;;14.13;6.13;;;;;;;;;;5816097;28;20057;-73
2023/12/02 15:58:30;;;;;;;9.10;6.05;;;;;;;;;;5814890;28;20046;-73
2023/12/02 16:01:23;;;;;;;11.68;5.40;;;;;;;;;;5815101;28;20071;-74
2023/12/02 16:04:17;;;;;;;8.75;4.80;;;;;;;;;;5817003;28;20167;-74
2023/12/02 16:07:12;;;;;;;15.70;6.70;;;;;;;;;;5818878;28;20061;-74
2023/12/02 16:10:04;;;;;;;12.48;6.65;;;;;;;;;;5818702;28;20053;-74
2023/12/02 16:12:55;;;;;;;10.27;5.32;;;;;;;;;;5819374;28;20046;-73
2023/12/02 16:15:46;;;;;;;10.30;6.28;;;;;;;;;;5819185;28;20053;-73
2023/12/02 16:18:44;;;;;;;10.95;4.85;;;;;;;;;;5819792;28;20177;-73
2023/12/02 16:21:35;;;;;;;12.70;6.15;;;;;;;;;;5818835;28;20050;-74
2023/12/02 16:24:27;;;;;;;20.35;6.93;;;;;;;;;;5818511;28;20042;-73
2023/12/02 16:27:18;;;;;;;15.02;7.68;;;;;;;;;;5802575;28;20072;-73
2023/12/02 16:30:19;;;;;;;17.63;9.77;;;;;;;;;;5818440;28;20129;-74
2023/12/02 16:33:10;;;;;;;24.25;11.00;;;;;;;;;;5818181;28;20104;-74
2023/12/02 16:36:01;;;;;;;20.48;10.20;;;;;;;;;;5819462;28;20053;-75
2023/12/02 16:38:53;;;;;;;14.93;8.30;;;;;;;;;;5820234;28;20061;-73
2023/12/02 16:41:44;;;;;;;7.72;5.22;;;;;;;;;;5818342;28;20042;-74
2023/12/02 16:44:35;;;;;;;6.07;4.07;;;;;;;;;;5817987;28;20541;-74
2023/12/02 16:47:55;;;;;;;13.00;5.93;;;;;;;;;;5819352;28;20055;-74
2023/12/02 16:50:46;;;;;;;9.13;5.40;;;;;;;;;;5802467;28;20173;-73
2023/12/02 16:53:37;;;;;;;12.60;6.15;;;;;;;;;;5819254;28;20038;-74
2023/12/02 16:56:32;;;;;;;7.03;4.60;;;;;;;;;;5817828;28;20042;-73
2023/12/02 16:59:50;;;;;;;9.57;5.93;;;;;;;;;;5817758;28;20046;-73
2023/12/02 17:02:43;;;;;;;20.55;7.32;;;;;;;;;;5815717;28;20046;-73
2023/12/02 17:05:34;;;;;;;15.05;7.57;;;;;;;;;;5817876;28;20046;-73
2023/12/02 17:08:27;;;;;;;10.23;5.57;;;;;;;;;;5818987;28;20125;-74
2023/12/02 17:11:21;;;;;;;11.95;5.38;;;;;;;;;;5819151;28;20508;-73
2023/12/02 17:14:15;;;;;;;17.50;8.18;;;;;;;;;;5801395;28;20059;-73
2023/12/02 17:17:07;;;;;;;18.95;10.23;;;;;;;;;;5801054;28;20133;-74
2023/12/02 17:19:59;;;;;;;12.32;6.55;;;;;;;;;;5819252;28;20046;-73
2023/12/02 17:22:50;;;;;;;11.27;5.57;;;;;;;;;;5817593;28;20496;-73